sensor_id;sensor_type;location;lat;lon;timestamp;pressure;altitude;pressure_sealevel;temperature;humidity
12536;BME280;6334;48.696;2.114;2022-10-04T00:01:49;100502.70;;;11.41;100.00
12536;BME280;6334;48.696;2.114;2022-10-04T00:09:42;100504.69;;;11.26;100.00
12536;BME280;6334;48.696;2.114;2022-10-04T00:12:18;100516.39;;;11.42;100.00
12536;BME280;6334;48.696;2.114;2022-10-04T00:14:47;100510.80;;;11.70;100.00
12536;BME280;6334;48.696;2.114;2022-10-04T00:17:27;100508.51;;;11.65;100.00
12536;BME280;6334;48.696;2.114;2022-10-04T00:19:56;100503.38;;;11.70;100.00
12536;BME280;6334;48.696;2.114;2022-10-04T00:22:30;100501.55;;;11.47;100.00
12536;BME280;6334;48.696;2.114;2022-10-04T00:27:30;100497.90;;;11.66;100.00
12536;BME280;6334;48.696;2.114;2022-10-04T00:38:07;100500.02;;;11.56;100.00
12536;BME280;6334;48.696;2.114;2022-10-04T00:40:32;100498.97;;;11.40;100.00
12536;BME280;6334;48.696;2.114;2022-10-04T00:43:01;100501.73;;;11.84;100.00
12536;BME280;6334;48.696;2.114;2022-10-04T00:45:44;100499.16;;;11.22;100.00
12536;BME280;6334;48.696;2.114;2022-10-04T00:48:43;100498.91;;;11.65;100.00
12536;BME280;6334;48.696;2.114;2022-10-04T00:51:34;100495.64;;;11.45;100.00
12536;BME280;6334;48.696;2.114;2022-10-04T00:54:19;100491.69;;;11.29;100.00
12536;BME280;6334;48.696;2.114;2022-10-04T00:56:50;100486.36;;;11.40;100.00
12536;BME280;6334;48.696;2.114;2022-10-04T00:59:51;100482.41;;;11.32;100.00
12536;BME280;6334;48.696;2.114;2022-10-04T01:02:21;100484.14;;;11.51;100.00
12536;BME280;6334;48.696;2.114;2022-10-04T01:04:52;100486.74;;;11.51;100.00
12536;BME280;6334;48.696;2.114;2022-10-04T01:07:31;100487.73;;;11.39;100.00
12536;BME280;6334;48.696;2.114;2022-10-04T01:09:58;100483.03;;;11.56;100.00
12536;BME280;6334;48.696;2.114;2022-10-04T01:12:51;100436.91;;;10.90;100.00
12536;BME280;6334;48.696;2.114;2022-10-04T01:29:16;100454.22;;;11.48;100.00
12536;BME280;6334;48.696;2.114;2022-10-04T01:31:44;100454.44;;;11.51;100.00
12536;BME280;6334;48.696;2.114;2022-10-04T01:34:15;100447.56;;;11.47;100.00
12536;BME280;6334;48.696;2.114;2022-10-04T01:36:43;100447.04;;;11.57;100.00
12536;BME280;6334;48.696;2.114;2022-10-04T01:39:14;100444.53;;;11.22;100.00
12536;BME280;6334;48.696;2.114;2022-10-04T01:44:42;100442.77;;;11.59;100.00
12536;BME280;6334;48.696;2.114;2022-10-04T01:47:15;100447.26;;;11.28;100.00
12536;BME280;6334;48.696;2.114;2022-10-04T01:49:42;100443.89;;;11.47;100.00
12536;BME280;6334;48.696;2.114;2022-10-04T01:52:32;100442.64;;;11.53;100.00
12536;BME280;6334;48.696;2.114;2022-10-04T01:55:07;100430.88;;;11.56;100.00
12536;BME280;6334;48.696;2.114;2022-10-04T01:57:37;100427.84;;;11.40;100.00
12536;BME280;6334;48.696;2.114;2022-10-04T02:00:10;100423.04;;;11.35;100.00
12536;BME280;6334;48.696;2.114;2022-10-04T02:02:41;100433.55;;;11.33;100.00
12536;BME280;6334;48.696;2.114;2022-10-04T02:05:11;100424.84;;;11.31;100.00
12536;BME280;6334;48.696;2.114;2022-10-04T02:07:41;100421.14;;;11.45;100.00
12536;BME280;6334;48.696;2.114;2022-10-04T02:10:14;100423.52;;;11.43;100.00
12536;BME280;6334;48.696;2.114;2022-10-04T02:12:46;100416.78;;;11.42;100.00
12536;BME280;6334;48.696;2.114;2022-10-04T02:15:15;100412.95;;;11.41;100.00
12536;BME280;6334;48.696;2.114;2022-10-04T02:17:44;100398.60;;;11.38;100.00
12536;BME280;6334;48.696;2.114;2022-10-04T02:20:20;100391.67;;;11.28;100.00
12536;BME280;6334;48.696;2.114;2022-10-04T02:22:56;100390.74;;;11.34;100.00
12536;BME280;6334;48.696;2.114;2022-10-04T02:25:25;100393.72;;;11.37;100.00
12536;BME280;6334;48.696;2.114;2022-10-04T02:27:56;100397.36;;;11.40;100.00
12536;BME280;6334;48.696;2.114;2022-10-04T02:30:26;100388.19;;;11.39;100.00
12536;BME280;6334;48.696;2.114;2022-10-04T02:32:57;100385.83;;;11.26;100.00
12536;BME280;6334;48.696;2.114;2022-10-04T02:35:31;100337.78;;;11.01;100.00
12536;BME280;6334;48.696;2.114;2022-10-04T02:38:08;100352.94;;;11.34;100.00
12536;BME280;6334;48.696;2.114;2022-10-04T02:40:37;100382.13;;;11.31;100.00
12536;BME280;6334;48.696;2.114;2022-10-04T02:43:21;100378.06;;;11.37;100.00
12536;BME280;6334;48.696;2.114;2022-10-04T02:46:10;100380.13;;;11.25;100.00
12536;BME280;6334;48.696;2.114;2022-10-04T02:48:43;100383.54;;;10.53;100.00
12536;BME280;6334;48.696;2.114;2022-10-04T02:51:30;100379.09;;;10.98;100.00
12536;BME280;6334;48.696;2.114;2022-10-04T02:54:21;100378.58;;;10.83;100.00
12536;BME280;6334;48.696;2.114;2022-10-04T02:56:49;100377.40;;;10.95;100.00
12536;BME280;6334;48.696;2.114;2022-10-04T02:59:17;100374.95;;;11.11;100.00
12536;BME280;6334;48.696;2.114;2022-10-04T03:01:54;100369.14;;;10.56;100.00
12536;BME280;6334;48.696;2.114;2022-10-04T03:04:27;100366.68;;;10.99;100.00
12536;BME280;6334;48.696;2.114;2022-10-04T03:06:54;100367.61;;;10.68;100.00
12536;BME280;6334;48.696;2.114;2022-10-04T03:09:24;100362.61;;;11.06;100.00
12536;BME280;6334;48.696;2.114;2022-10-04T03:11:55;100364.67;;;10.93;100.00
12536;BME280;6334;48.696;2.114;2022-10-04T03:14:26;100366.05;;;11.04;100.00
12536;BME280;6334;48.696;2.114;2022-10-04T03:16:57;100360.58;;;10.97;100.00
12536;BME280;6334;48.696;2.114;2022-10-04T03:19:26;100361.72;;;10.78;100.00
12536;BME280;6334;48.696;2.114;2022-10-04T03:21:58;100359.27;;;10.87;100.00
12536;BME280;6334;48.696;2.114;2022-10-04T03:24:28;100350.28;;;10.82;100.00
12536;BME280;6334;48.696;2.114;2022-10-04T03:26:57;100347.15;;;10.98;100.00
12536;BME280;6334;48.696;2.114;2022-10-04T03:29:28;100340.54;;;11.14;100.00
12536;BME280;6334;48.696;2.114;2022-10-04T03:31:58;100347.33;;;11.01;100.00
12536;BME280;6334;48.696;2.114;2022-10-04T03:34:34;100342.02;;;10.81;100.00
12536;BME280;6334;48.696;2.114;2022-10-04T03:37:01;100338.78;;;10.85;100.00
12536;BME280;6334;48.696;2.114;2022-10-04T03:39:36;100336.26;;;10.94;100.00
12536;BME280;6334;48.696;2.114;2022-10-04T03:42:02;100340.72;;;10.72;100.00
12536;BME280;6334;48.696;2.114;2022-10-04T03:44:31;100334.20;;;10.59;100.00
12536;BME280;6334;48.696;2.114;2022-10-04T03:47:05;100327.08;;;10.83;100.00
12536;BME280;6334;48.696;2.114;2022-10-04T03:49:32;100295.77;;;10.34;100.00
12536;BME280;6334;48.696;2.114;2022-10-04T03:52:01;100324.08;;;10.88;100.00
12536;BME280;6334;48.696;2.114;2022-10-04T03:54:33;100267.89;;;10.42;100.00
12536;BME280;6334;48.696;2.114;2022-10-04T03:57:10;100311.83;;;10.77;100.00
12536;BME280;6334;48.696;2.114;2022-10-04T03:59:34;100327.34;;;10.56;100.00
12536;BME280;6334;48.696;2.114;2022-10-04T04:02:38;100332.91;;;10.02;100.00
12536;BME280;6334;48.696;2.114;2022-10-04T04:05:05;100333.18;;;10.63;100.00
12536;BME280;6334;48.696;2.114;2022-10-04T04:08:02;100340.73;;;9.60;100.00
12536;BME280;6334;48.696;2.114;2022-10-04T04:10:32;100338.27;;;9.61;100.00
12536;BME280;6334;48.696;2.114;2022-10-04T04:13:22;100330.38;;;10.42;100.00
12536;BME280;6334;48.696;2.114;2022-10-04T04:15:49;100333.62;;;10.49;100.00
12536;BME280;6334;48.696;2.114;2022-10-04T04:18:20;100340.35;;;10.21;100.00
12536;BME280;6334;48.696;2.114;2022-10-04T04:20:50;100344.02;;;10.41;100.00
12536;BME280;6334;48.696;2.114;2022-10-04T04:23:34;100341.27;;;10.47;100.00
12536;BME280;6334;48.696;2.114;2022-10-04T04:29:16;100361.34;;;10.03;100.00
12536;BME280;6334;48.696;2.114;2022-10-04T04:31:51;100360.72;;;9.83;100.00
12536;BME280;6334;48.696;2.114;2022-10-04T04:34:29;100348.78;;;10.23;100.00
12536;BME280;6334;48.696;2.114;2022-10-04T04:36:58;100347.32;;;10.17;100.00
12536;BME280;6334;48.696;2.114;2022-10-04T04:39:28;100321.95;;;10.12;100.00
12536;BME280;6334;48.696;2.114;2022-10-04T04:42:14;100360.48;;;9.90;100.00
12536;BME280;6334;48.696;2.114;2022-10-04T04:44:55;100366.00;;;9.54;100.00
12536;BME280;6334;48.696;2.114;2022-10-04T04:47:27;100354.70;;;9.93;100.00
12536;BME280;6334;48.696;2.114;2022-10-04T04:49:57;100356.88;;;10.23;100.00
12536;BME280;6334;48.696;2.114;2022-10-04T04:52:28;100350.03;;;9.96;100.00
12536;BME280;6334;48.696;2.114;2022-10-04T04:54:58;100351.11;;;10.10;100.00
12536;BME280;6334;48.696;2.114;2022-10-04T04:57:30;100351.48;;;10.27;100.00
12536;BME280;6334;48.696;2.114;2022-10-04T04:59:59;100347.98;;;10.17;100.00
12536;BME280;6334;48.696;2.114;2022-10-04T05:05:31;100353.45;;;10.30;100.00
12536;BME280;6334;48.696;2.114;2022-10-04T05:07:39;100358.38;;;9.75;100.00
12536;BME280;6334;48.696;2.114;2022-10-04T05:10:20;100358.09;;;9.55;100.00
12536;BME280;6334;48.696;2.114;2022-10-04T05:12:49;100304.39;;;9.62;100.00
12536;BME280;6334;48.696;2.114;2022-10-04T05:15:20;100359.75;;;10.09;100.00
12536;BME280;6334;48.696;2.114;2022-10-04T05:17:50;100365.52;;;10.21;100.00
12536;BME280;6334;48.696;2.114;2022-10-04T05:20:21;100335.34;;;9.77;100.00
12536;BME280;6334;48.696;2.114;2022-10-04T05:22:52;100365.14;;;10.16;100.00
12536;BME280;6334;48.696;2.114;2022-10-04T05:25:30;100364.57;;;9.47;100.00
12536;BME280;6334;48.696;2.114;2022-10-04T05:27:59;100371.20;;;9.25;100.00
12536;BME280;6334;48.696;2.114;2022-10-04T05:30:41;100364.84;;;9.98;100.00
12536;BME280;6334;48.696;2.114;2022-10-04T05:33:09;100360.70;;;9.50;100.00
12536;BME280;6334;48.696;2.114;2022-10-04T05:38:41;100319.50;;;8.83;100.00
12536;BME280;6334;48.696;2.114;2022-10-04T05:41:08;100362.28;;;10.01;100.00
12536;BME280;6334;48.696;2.114;2022-10-04T05:43:48;100367.21;;;9.91;100.00
12536;BME280;6334;48.696;2.114;2022-10-04T05:46:18;100361.78;;;10.78;100.00
12536;BME280;6334;48.696;2.114;2022-10-04T05:48:52;100359.88;;;9.23;100.00
12536;BME280;6334;48.696;2.114;2022-10-04T05:51:28;100356.20;;;9.23;100.00
12536;BME280;6334;48.696;2.114;2022-10-04T05:53:56;100356.58;;;10.03;100.00
12536;BME280;6334;48.696;2.114;2022-10-04T05:59:23;100348.97;;;8.96;100.00
12536;BME280;6334;48.696;2.114;2022-10-04T06:07:57;100343.27;;;9.91;100.00
12536;BME280;6334;48.696;2.114;2022-10-04T06:18:38;100349.42;;;10.21;100.00
12536;BME280;6334;48.696;2.114;2022-10-04T06:21:20;100346.52;;;10.23;100.00
12536;BME280;6334;48.696;2.114;2022-10-04T06:23:58;100345.77;;;10.08;100.00
12536;BME280;6334;48.696;2.114;2022-10-04T06:29:10;100358.98;;;10.23;100.00
12536;BME280;6334;48.696;2.114;2022-10-04T06:40:08;100359.33;;;8.82;100.00
12536;BME280;6334;48.696;2.114;2022-10-04T06:50:54;100362.20;;;10.23;100.00
12536;BME280;6334;48.696;2.114;2022-10-04T06:54:25;100350.98;;;10.39;100.00
12536;BME280;6334;48.696;2.114;2022-10-04T07:01:32;100367.89;;;8.90;100.00
12536;BME280;6334;48.696;2.114;2022-10-04T07:06:49;100372.63;;;9.88;100.00
12536;BME280;6334;48.696;2.114;2022-10-04T07:09:20;100374.62;;;9.67;100.00
12536;BME280;6334;48.696;2.114;2022-10-04T07:11:54;100368.25;;;9.36;100.00
12536;BME280;6334;48.696;2.114;2022-10-04T07:14:32;100375.20;;;9.54;100.00
12536;BME280;6334;48.696;2.114;2022-10-04T07:17:02;100371.88;;;10.07;100.00
12536;BME280;6334;48.696;2.114;2022-10-04T07:19:47;100375.77;;;10.44;100.00
12536;BME280;6334;48.696;2.114;2022-10-04T07:22:30;100373.95;;;10.44;100.00
12536;BME280;6334;48.696;2.114;2022-10-04T07:27:58;100381.73;;;10.53;100.00
12536;BME280;6334;48.696;2.114;2022-10-04T07:30:54;100381.81;;;10.64;100.00
12536;BME280;6334;48.696;2.114;2022-10-04T07:33:22;100378.82;;;10.90;100.00
12536;BME280;6334;48.696;2.114;2022-10-04T07:36:05;100382.55;;;10.80;100.00
12536;BME280;6334;48.696;2.114;2022-10-04T07:38:36;100378.14;;;10.71;100.00
12536;BME280;6334;48.696;2.114;2022-10-04T07:41:12;100379.91;;;10.80;100.00
12536;BME280;6334;48.696;2.114;2022-10-04T07:43:50;100376.28;;;11.14;100.00
12536;BME280;6334;48.696;2.114;2022-10-04T07:48:49;100382.94;;;10.13;100.00
12536;BME280;6334;48.696;2.114;2022-10-04T07:54:20;100383.16;;;10.79;100.00
12536;BME280;6334;48.696;2.114;2022-10-04T07:56:53;100385.36;;;10.23;100.00
12536;BME280;6334;48.696;2.114;2022-10-04T07:59:47;100383.45;;;10.82;100.00
12536;BME280;6334;48.696;2.114;2022-10-04T08:08:20;100377.36;;;11.12;100.00
12536;BME280;6334;48.696;2.114;2022-10-04T08:15:52;100367.83;;;11.25;100.00
12536;BME280;6334;48.696;2.114;2022-10-04T08:21:00;100370.77;;;10.98;100.00
12536;BME280;6334;48.696;2.114;2022-10-04T08:29:37;100376.91;;;11.65;100.00
12536;BME280;6334;48.696;2.114;2022-10-04T08:32:40;100341.98;;;11.14;100.00
12536;BME280;6334;48.696;2.114;2022-10-04T08:49:22;100388.94;;;12.06;100.00
12536;BME280;6334;48.696;2.114;2022-10-04T08:58:00;100396.77;;;12.15;100.00
12536;BME280;6334;48.696;2.114;2022-10-04T09:00:57;100403.00;;;11.49;100.00
12536;BME280;6334;48.696;2.114;2022-10-04T09:39:26;100381.12;;;13.39;100.00
12536;BME280;6334;48.696;2.114;2022-10-04T09:45:29;100378.22;;;13.47;100.00
12536;BME280;6334;48.696;2.114;2022-10-04T09:47:29;100372.37;;;13.46;100.00
12536;BME280;6334;48.696;2.114;2022-10-04T09:52:53;100376.74;;;13.65;100.00
12536;BME280;6334;48.696;2.114;2022-10-04T09:55:43;100379.64;;;13.90;100.00
12536;BME280;6334;48.696;2.114;2022-10-04T09:58:29;100379.86;;;13.97;100.00
12536;BME280;6334;48.696;2.114;2022-10-04T10:01:21;100375.59;;;13.92;100.00
12536;BME280;6334;48.696;2.114;2022-10-04T10:04:07;100345.60;;;13.83;100.00
12536;BME280;6334;48.696;2.114;2022-10-04T10:18:23;100378.30;;;14.34;100.00
12536;BME280;6334;48.696;2.114;2022-10-04T10:26:41;100358.73;;;14.52;100.00
12536;BME280;6334;48.696;2.114;2022-10-04T10:37:56;100345.34;;;14.75;100.00
12536;BME280;6334;48.696;2.114;2022-10-04T10:46:16;100362.22;;;14.62;100.00
12536;BME280;6334;48.696;2.114;2022-10-04T10:54:25;100351.36;;;14.69;100.00
12536;BME280;6334;48.696;2.114;2022-10-04T10:57:04;100347.40;;;14.83;100.00
12536;BME280;6334;48.696;2.114;2022-10-04T11:03:20;100348.80;;;15.07;100.00
12536;BME280;6334;48.696;2.114;2022-10-04T11:14:28;100355.38;;;14.90;100.00
12536;BME280;6334;48.696;2.114;2022-10-04T11:22:37;100371.20;;;14.92;100.00
12536;BME280;6334;48.696;2.114;2022-10-04T11:25:22;100373.39;;;15.15;100.00
12536;BME280;6334;48.696;2.114;2022-10-04T11:27:52;100370.69;;;15.14;100.00
12536;BME280;6334;48.696;2.114;2022-10-04T11:30:22;100366.02;;;15.44;100.00
12536;BME280;6334;48.696;2.114;2022-10-04T11:36:01;100371.30;;;15.27;100.00
12536;BME280;6334;48.696;2.114;2022-10-04T11:47:20;100380.76;;;15.80;100.00
12536;BME280;6334;48.696;2.114;2022-10-04T11:55:48;100372.97;;;15.58;100.00
12536;BME280;6334;48.696;2.114;2022-10-04T11:58:18;100371.17;;;15.58;100.00
12536;BME280;6334;48.696;2.114;2022-10-04T12:20:37;100374.30;;;15.72;100.00
12536;BME280;6334;48.696;2.114;2022-10-04T12:23:19;100375.00;;;15.70;100.00
12536;BME280;6334;48.696;2.114;2022-10-04T12:28:45;100369.81;;;16.22;100.00
12536;BME280;6334;48.696;2.114;2022-10-04T12:31:24;100359.73;;;16.23;100.00
12536;BME280;6334;48.696;2.114;2022-10-04T12:36:28;100347.89;;;16.48;100.00
12536;BME280;6334;48.696;2.114;2022-10-04T12:39:18;100340.80;;;16.39;100.00
12536;BME280;6334;48.696;2.114;2022-10-04T12:53:03;100324.27;;;16.57;100.00
12536;BME280;6334;48.696;2.114;2022-10-04T12:55:58;100323.11;;;16.65;100.00
12536;BME280;6334;48.696;2.114;2022-10-04T13:01:13;100315.92;;;16.59;100.00
12536;BME280;6334;48.696;2.114;2022-10-04T13:04:27;100314.92;;;16.61;100.00
12536;BME280;6334;48.696;2.114;2022-10-04T13:06:19;100316.96;;;16.73;100.00
12536;BME280;6334;48.696;2.114;2022-10-04T13:22:35;100307.98;;;16.68;100.00
12536;BME280;6334;48.696;2.114;2022-10-04T13:25:25;100305.98;;;16.80;100.00
12536;BME280;6334;48.696;2.114;2022-10-04T13:28:04;100306.28;;;16.89;100.00
12536;BME280;6334;48.696;2.114;2022-10-04T13:30:41;100305.15;;;16.90;100.00
12536;BME280;6334;48.696;2.114;2022-10-04T13:36:21;100291.72;;;16.84;100.00
12536;BME280;6334;48.696;2.114;2022-10-04T13:55:52;100277.22;;;17.19;100.00
12536;BME280;6334;48.696;2.114;2022-10-04T14:26:41;100266.83;;;17.29;100.00
12536;BME280;6334;48.696;2.114;2022-10-04T14:34:34;100266.33;;;17.37;100.00
12536;BME280;6334;48.696;2.114;2022-10-04T14:37:27;100261.77;;;17.33;100.00
12536;BME280;6334;48.696;2.114;2022-10-04T14:46:06;100264.96;;;17.25;100.00
12536;BME280;6334;48.696;2.114;2022-10-04T14:48:55;100265.95;;;17.31;100.00
12536;BME280;6334;48.696;2.114;2022-10-04T14:54:08;100263.44;;;17.20;100.00
12536;BME280;6334;48.696;2.114;2022-10-04T14:57:07;100264.81;;;17.16;100.00
12536;BME280;6334;48.696;2.114;2022-10-04T14:59:56;100266.06;;;17.28;100.00
12536;BME280;6334;48.696;2.114;2022-10-04T15:07:49;100262.19;;;17.43;100.00
12536;BME280;6334;48.696;2.114;2022-10-04T15:10:25;100259.89;;;17.60;100.00
12536;BME280;6334;48.696;2.114;2022-10-04T15:30:17;100250.63;;;17.43;100.00
12536;BME280;6334;48.696;2.114;2022-10-04T15:33:15;100246.22;;;17.45;100.00
12536;BME280;6334;48.696;2.114;2022-10-04T15:38:51;100232.41;;;17.45;100.00
12536;BME280;6334;48.696;2.114;2022-10-04T15:41:24;100231.21;;;17.24;100.00
12536;BME280;6334;48.696;2.114;2022-10-04T15:47:14;100228.52;;;17.34;100.00
12536;BME280;6334;48.696;2.114;2022-10-04T15:55:19;100222.67;;;17.18;100.00
12536;BME280;6334;48.696;2.114;2022-10-04T16:06:11;100212.75;;;17.06;100.00
12536;BME280;6334;48.696;2.114;2022-10-04T16:09:09;100221.98;;;17.06;100.00
12536;BME280;6334;48.696;2.114;2022-10-04T16:11:43;100215.77;;;17.00;100.00
12536;BME280;6334;48.696;2.114;2022-10-04T16:19:19;100237.67;;;16.94;100.00
12536;BME280;6334;48.696;2.114;2022-10-04T16:21:52;100238.22;;;16.86;100.00
12536;BME280;6334;48.696;2.114;2022-10-04T16:31:58;100235.48;;;16.93;100.00
12536;BME280;6334;48.696;2.114;2022-10-04T16:34:38;100234.83;;;16.92;100.00
12536;BME280;6334;48.696;2.114;2022-10-04T16:42:53;100232.68;;;16.93;100.00
12536;BME280;6334;48.696;2.114;2022-10-04T16:45:44;100230.91;;;16.80;100.00
12536;BME280;6334;48.696;2.114;2022-10-04T16:56:23;100241.85;;;16.69;100.00
12536;BME280;6334;48.696;2.114;2022-10-04T16:58:59;100244.28;;;16.68;100.00
12536;BME280;6334;48.696;2.114;2022-10-04T17:01:36;100246.31;;;16.59;100.00
12536;BME280;6334;48.696;2.114;2022-10-04T17:09:28;100259.05;;;16.51;100.00
12536;BME280;6334;48.696;2.114;2022-10-04T17:12:06;100258.98;;;16.47;100.00
12536;BME280;6334;48.696;2.114;2022-10-04T17:14:45;100263.73;;;16.47;100.00
12536;BME280;6334;48.696;2.114;2022-10-04T17:19:58;100266.97;;;16.38;100.00
12536;BME280;6334;48.696;2.114;2022-10-04T17:22:52;100272.86;;;16.39;100.00
12536;BME280;6334;48.696;2.114;2022-10-04T17:33:54;100292.55;;;16.45;100.00
12536;BME280;6334;48.696;2.114;2022-10-04T17:36:38;100288.19;;;16.42;100.00
12536;BME280;6334;48.696;2.114;2022-10-04T17:42:05;100283.42;;;16.33;100.00
12536;BME280;6334;48.696;2.114;2022-10-04T17:44:44;100280.70;;;16.31;100.00
12536;BME280;6334;48.696;2.114;2022-10-04T17:50:01;100277.11;;;16.33;100.00
12536;BME280;6334;48.696;2.114;2022-10-04T17:52:52;100277.92;;;16.33;100.00
12536;BME280;6334;48.696;2.114;2022-10-04T17:55:50;100280.00;;;16.26;100.00
12536;BME280;6334;48.696;2.114;2022-10-04T17:58:18;100281.47;;;16.18;100.00
12536;BME280;6334;48.696;2.114;2022-10-04T18:00:51;100281.78;;;16.23;100.00
12536;BME280;6334;48.696;2.114;2022-10-04T18:03:21;100278.33;;;16.21;100.00
12536;BME280;6334;48.696;2.114;2022-10-04T18:06:00;100276.84;;;16.25;100.00
12536;BME280;6334;48.696;2.114;2022-10-04T18:11:21;100272.67;;;16.23;100.00
12536;BME280;6334;48.696;2.114;2022-10-04T18:16:45;100271.08;;;16.16;100.00
12536;BME280;6334;48.696;2.114;2022-10-04T18:19:41;100273.31;;;16.17;100.00
12536;BME280;6334;48.696;2.114;2022-10-04T18:22:12;100267.68;;;16.18;100.00
12536;BME280;6334;48.696;2.114;2022-10-04T18:24:42;100262.75;;;16.07;100.00
12536;BME280;6334;48.696;2.114;2022-10-04T18:27:22;100265.87;;;16.14;100.00
12536;BME280;6334;48.696;2.114;2022-10-04T18:30:12;100271.09;;;16.11;100.00
12536;BME280;6334;48.696;2.114;2022-10-04T18:32:47;100265.90;;;16.21;100.00
12536;BME280;6334;48.696;2.114;2022-10-04T18:35:29;100262.61;;;16.12;100.00
12536;BME280;6334;48.696;2.114;2022-10-04T18:40:39;100255.66;;;16.12;100.00
12536;BME280;6334;48.696;2.114;2022-10-04T18:43:07;100258.28;;;16.15;100.00
12536;BME280;6334;48.696;2.114;2022-10-04T18:45:35;100257.00;;;16.14;100.00
12536;BME280;6334;48.696;2.114;2022-10-04T18:48:14;100258.05;;;16.03;100.00
12536;BME280;6334;48.696;2.114;2022-10-04T18:50:44;100258.59;;;16.02;100.00
12536;BME280;6334;48.696;2.114;2022-10-04T18:56:04;100260.59;;;16.01;100.00
12536;BME280;6334;48.696;2.114;2022-10-04T18:58:58;100266.23;;;15.96;100.00
12536;BME280;6334;48.696;2.114;2022-10-04T19:07:37;100273.69;;;16.01;100.00
12536;BME280;6334;48.696;2.114;2022-10-04T19:10:28;100273.55;;;15.85;100.00
12536;BME280;6334;48.696;2.114;2022-10-04T19:13:08;100271.17;;;15.92;100.00
12536;BME280;6334;48.696;2.114;2022-10-04T19:18:50;100280.23;;;15.88;100.00
12536;BME280;6334;48.696;2.114;2022-10-04T19:24:12;100284.42;;;15.92;100.00
12536;BME280;6334;48.696;2.114;2022-10-04T19:26:39;100292.59;;;16.10;100.00
12536;BME280;6334;48.696;2.114;2022-10-04T19:31:59;100297.18;;;16.06;100.00
12536;BME280;6334;48.696;2.114;2022-10-04T19:34:46;100301.17;;;16.12;100.00
12536;BME280;6334;48.696;2.114;2022-10-04T19:37:15;100297.30;;;16.05;100.00
12536;BME280;6334;48.696;2.114;2022-10-04T19:40:07;100296.61;;;16.08;100.00
12536;BME280;6334;48.696;2.114;2022-10-04T19:42:54;100298.31;;;16.05;100.00
12536;BME280;6334;48.696;2.114;2022-10-04T19:48:17;100300.14;;;15.97;100.00
12536;BME280;6334;48.696;2.114;2022-10-04T19:50:52;100300.17;;;15.89;100.00
12536;BME280;6334;48.696;2.114;2022-10-04T19:53:40;100300.42;;;16.00;100.00
12536;BME280;6334;48.696;2.114;2022-10-04T19:55:57;100300.27;;;16.06;100.00
12536;BME280;6334;48.696;2.114;2022-10-04T19:58:40;100300.28;;;15.99;100.00
12536;BME280;6334;48.696;2.114;2022-10-04T20:01:15;100295.16;;;16.04;100.00
12536;BME280;6334;48.696;2.114;2022-10-04T20:03:45;100294.33;;;15.99;100.00
12536;BME280;6334;48.696;2.114;2022-10-04T20:06:34;100290.41;;;15.85;100.00
12536;BME280;6334;48.696;2.114;2022-10-04T20:09:23;100297.41;;;15.89;100.00
12536;BME280;6334;48.696;2.114;2022-10-04T20:11:51;100296.67;;;16.10;100.00
12536;BME280;6334;48.696;2.114;2022-10-04T20:29:55;100304.71;;;16.12;100.00
12536;BME280;6334;48.696;2.114;2022-10-04T20:35:03;100302.52;;;16.16;100.00
12536;BME280;6334;48.696;2.114;2022-10-04T20:45:48;100290.17;;;16.16;100.00
12536;BME280;6334;48.696;2.114;2022-10-04T20:48:21;100288.45;;;16.14;100.00
12536;BME280;6334;48.696;2.114;2022-10-04T20:50:51;100292.14;;;16.03;100.00
12536;BME280;6334;48.696;2.114;2022-10-04T20:53:23;100292.25;;;16.05;100.00
12536;BME280;6334;48.696;2.114;2022-10-04T20:58:41;100282.15;;;15.95;100.00
12536;BME280;6334;48.696;2.114;2022-10-04T21:01:30;100284.89;;;16.02;100.00
12536;BME280;6334;48.696;2.114;2022-10-04T21:04:24;100284.81;;;15.84;100.00
12536;BME280;6334;48.696;2.114;2022-10-04T21:07:03;100284.93;;;15.85;100.00
12536;BME280;6334;48.696;2.114;2022-10-04T21:09:36;100286.65;;;15.79;100.00
12536;BME280;6334;48.696;2.114;2022-10-04T21:12:23;100293.29;;;15.90;100.00
12536;BME280;6334;48.696;2.114;2022-10-04T21:14:36;100290.61;;;15.89;100.00
12536;BME280;6334;48.696;2.114;2022-10-04T21:19:57;100281.89;;;15.73;100.00
12536;BME280;6334;48.696;2.114;2022-10-04T21:30:34;100282.66;;;15.90;100.00
12536;BME280;6334;48.696;2.114;2022-10-04T21:32:37;100282.83;;;15.86;100.00
12536;BME280;6334;48.696;2.114;2022-10-04T21:35:08;100285.45;;;15.88;100.00
12536;BME280;6334;48.696;2.114;2022-10-04T21:37:38;100271.52;;;15.66;100.00
12536;BME280;6334;48.696;2.114;2022-10-04T21:40:11;100282.27;;;15.90;100.00
12536;BME280;6334;48.696;2.114;2022-10-04T21:42:41;100283.04;;;15.93;100.00
12536;BME280;6334;48.696;2.114;2022-10-04T21:45:11;100282.09;;;15.84;100.00
12536;BME280;6334;48.696;2.114;2022-10-04T21:47:41;100287.58;;;15.90;100.00
12536;BME280;6334;48.696;2.114;2022-10-04T21:50:12;100287.06;;;15.85;100.00
12536;BME280;6334;48.696;2.114;2022-10-04T21:52:42;100290.78;;;15.82;100.00
12536;BME280;6334;48.696;2.114;2022-10-04T21:55:13;100294.71;;;15.81;100.00
12536;BME280;6334;48.696;2.114;2022-10-04T21:57:43;100288.92;;;15.78;100.00
12536;BME280;6334;48.696;2.114;2022-10-04T22:00:14;100295.19;;;15.83;100.00
12536;BME280;6334;48.696;2.114;2022-10-04T22:02:44;100295.02;;;15.94;100.00
12536;BME280;6334;48.696;2.114;2022-10-04T22:05:15;100290.80;;;15.85;100.00
12536;BME280;6334;48.696;2.114;2022-10-04T22:07:45;100296.08;;;15.77;100.00
12536;BME280;6334;48.696;2.114;2022-10-04T22:10:16;100294.64;;;15.82;100.00
12536;BME280;6334;48.696;2.114;2022-10-04T22:12:46;100289.80;;;15.84;100.00
12536;BME280;6334;48.696;2.114;2022-10-04T22:15:17;100287.52;;;15.72;100.00
12536;BME280;6334;48.696;2.114;2022-10-04T22:17:47;100293.00;;;15.74;100.00